Armony — 5IM517 — position and weather

sailwx.info

Track history (hours):
 
Tides and Currents Weather Stations Pressure Air Temp Water Temp Dewpoint Dewpoint Depression Visibility Wind Speed Wind Dir Waves Ship Positions

Armony

Last reported at 2017-Nov-04 09:02 UTC. Time now 2017-Nov-22 03:56 UTC.
Position N 40°44' E 029°24'.
Warning: this ship's position is 17 days out of date.

Length 70 m; draft 4.6 m.

Type: Ship. MMSI: 677041700.

Date/timePositionNaut miles runAvg speedWind from/ knotsBaromVisibWave heightAir tempDewpointWater temp
2017-Nov-04 09:02N 40°44' E 029°24'1 7.8
2017-Nov-04 08:58N 40°44' E 029°23'3 7.5
2017-Nov-04 08:30N 40°44' E 029°18'3 5.4
2017-Nov-04 08:01N 40°44' E 029°15'3 5.1
2017-Nov-04 07:31N 40°46' E 029°12'3 5.9
2017-Nov-04 07:01N 40°47' E 029°09'4 8.2
2017-Nov-04 06:30N 40°49' E 029°04'4 8.7
2017-Nov-04 06:01N 40°51' E 028°59'  
2017-Oct-29 03:45N 40°59' E 028°60'12 1.3
2017-Oct-28 19:00N 40°50' E 029°10'3 5.6
2017-Oct-28 18:30N 40°48' E 029°08'4 7.4
2017-Oct-28 18:01N 40°47' E 029°12'5 9.3
2017-Oct-28 17:30N 40°45' E 029°18'5 9.1
2017-Oct-28 17:00N 40°45' E 029°24'  
Track history (hours):
 
Tides and Currents Weather Stations Pressure Air Temp Water Temp Dewpoint Dewpoint Depression Visibility Wind Speed Wind Dir Waves Ship Positions

Armony

Last reported at 2017-Nov-04 09:02 UTC. Time now 2017-Nov-22 03:56 UTC.
Position N 40°44' E 029°24'.
Warning: this ship's position is 17 days out of date.

Length 70 m; draft 4.6 m.

Type: Ship. MMSI: 677041700.

Date/timePositionNaut miles runAvg speedWind from/ knotsBaromVisibWave heightAir tempDewpointWater temp
2017-Nov-04 09:02N 40°44' E 029°24'1 7.8
2017-Nov-04 08:58N 40°44' E 029°23'3 7.5
2017-Nov-04 08:30N 40°44' E 029°18'3 5.4
2017-Nov-04 08:01N 40°44' E 029°15'3 5.1
2017-Nov-04 07:31N 40°46' E 029°12'3 5.9
2017-Nov-04 07:01N 40°47' E 029°09'4 8.2
2017-Nov-04 06:30N 40°49' E 029°04'4 8.7
2017-Nov-04 06:01N 40°51' E 028°59'  
2017-Oct-29 03:45N 40°59' E 028°60'12 1.3
2017-Oct-28 19:00N 40°50' E 029°10'3 5.6
2017-Oct-28 18:30N 40°48' E 029°08'4 7.4
2017-Oct-28 18:01N 40°47' E 029°12'5 9.3
2017-Oct-28 17:30N 40°45' E 029°18'5 9.1
2017-Oct-28 17:00N 40°45' E 029°24'  

Dump ship's entire track history